Time;durP1;ratioP1;P1;durP2;ratioP2;P2;SDS_P1;SDS_P2;PMS_P1;PMS_P2;Temp;Humidity;BMP_temperature;BMP_pressure;BME280_temperature;BME280_humidity;BME280_pressure;Samples;Min_cycle;Max_cycle;Signal;HPM_P1;HPM_P2
2022/03/25 00:01:59;;;;;;;18.42;9.48;;;;;;;4.22;52.12;91200.84;4992424;28;20034;-68
2022/03/25 00:04:25;;;;;;;23.30;8.68;;;;;;;4.22;52.25;91198.22;4992697;28;20041;-68
2022/03/25 00:06:50;;;;;;;18.17;9.20;;;;;;;4.24;52.02;91198.72;4992280;28;20518;-68
2022/03/25 00:09:15;;;;;;;21.33;11.35;;;;;;;4.28;52.31;91184.00;4992340;28;20042;-68
2022/03/25 00:11:41;;;;;;;15.50;9.27;;;;;;;4.28;52.03;91176.09;4992052;28;20079;-68
2022/03/25 00:14:07;;;;;;;22.30;11.00;;;;;;;4.28;52.34;91177.94;4992135;28;20034;-68
2022/03/25 00:16:32;;;;;;;17.20;9.68;;;;;;;4.27;52.46;91171.13;4992034;28;20033;-68
2022/03/25 00:18:59;;;;;;;22.10;10.38;;;;;;;4.18;52.47;91174.25;4992184;28;20112;-68
2022/03/25 00:21:24;;;;;;;20.52;10.10;;;;;;;4.19;52.82;91167.16;4992123;28;20034;-68
2022/03/25 00:23:50;;;;;;;24.02;10.90;;;;;;;4.20;53.13;91160.81;4992119;28;20030;-68
2022/03/25 00:26:15;;;;;;;24.23;10.88;;;;;;;4.17;52.94;91161.34;4991947;28;20057;-68
2022/03/25 00:28:41;;;;;;;24.08;10.88;;;;;;;4.13;53.20;91163.75;4992019;28;20496;-68
2022/03/25 00:31:07;;;;;;;16.55;9.63;;;;;;;4.10;52.96;91155.56;4991914;28;20564;-68
2022/03/25 00:33:34;;;;;;;15.27;8.80;;;;;;;4.02;53.24;91142.94;4974397;28;20058;-68
2022/03/25 00:36:01;;;;;;;18.20;9.00;;;;;;;4.17;52.82;91150.81;4991712;28;20062;-68
2022/03/25 00:38:27;;;;;;;15.60;9.10;;;;;;;4.16;53.05;91152.66;4991844;28;20113;-68
2022/03/25 00:40:54;;;;;;;13.23;8.57;;;;;;;4.20;53.08;91148.44;4991731;28;20060;-68
2022/03/25 00:43:20;;;;;;;13.30;8.50;;;;;;;4.15;52.77;91139.78;4991805;28;20117;-68
2022/03/25 00:45:46;;;;;;;17.42;10.48;;;;;;;4.14;52.95;91138.19;4991692;28;20469;-68
2022/03/25 00:48:13;;;;;;;18.27;10.80;;;;;;;4.13;53.08;91155.06;4991722;28;20038;-66
2022/03/25 00:50:39;;;;;;;26.23;12.98;;;;;;;4.11;52.92;91154.53;4991933;28;20109;-65
2022/03/25 00:53:05;;;;;;;17.40;11.05;;;;;;;4.13;52.95;91147.16;4991683;28;20129;-66
2022/03/25 00:55:32;;;;;;;17.92;10.25;;;;;;;4.07;52.92;91148.19;4991449;28;20041;-66
2022/03/25 00:57:58;;;;;;;19.05;11.60;;;;;;;3.95;53.98;91155.56;4991611;28;20056;-65
2022/03/25 01:00:24;;;;;;;19.38;10.30;;;;;;;3.79;53.94;91154.78;4991600;28;20058;-66
2022/03/25 01:02:50;;;;;;;26.15;11.50;;;;;;;3.64;54.55;91146.84;4991777;28;20045;-66
2022/03/25 01:05:17;;;;;;;24.85;12.20;;;;;;;3.50;55.92;91151.84;4991479;28;20022;-66
2022/03/25 01:07:43;;;;;;;22.27;11.88;;;;;;;3.37;56.16;91149.69;4993667;28;20493;-66
2022/03/25 01:10:09;;;;;;;19.85;11.48;;;;;;;3.51;55.49;91142.88;4995404;28;20032;-66
2022/03/25 01:12:35;;;;;;;25.55;13.77;;;;;;;3.56;55.05;91140.25;4995499;28;20408;-66
2022/03/25 01:15:00;;;;;;;20.23;10.70;;;;;;;3.59;55.77;91134.47;4995424;28;20022;-66
2022/03/25 01:17:27;;;;;;;27.20;12.10;;;;;;;3.35;57.63;91128.13;4995366;28;20440;-66
2022/03/25 01:19:53;;;;;;;28.70;13.73;;;;;;;3.09;59.43;91122.78;4977944;28;20026;-66
2022/03/25 01:22:18;;;;;;;30.75;13.25;;;;;;;2.91;60.36;91124.06;4995414;28;20030;-66
2022/03/25 01:24:44;;;;;;;22.88;12.07;;;;;;;2.83;60.35;91123.75;4995358;28;20416;-66
2022/03/25 01:27:09;;;;;;;26.95;12.05;;;;;;;2.77;60.90;91120.31;4995297;28;20065;-68
2022/03/25 01:29:35;;;;;;;25.42;12.07;;;;;;;2.77;60.57;91103.75;4995351;28;20112;-67
2022/03/25 01:32:01;;;;;;;21.05;10.27;;;;;;;2.76;59.75;91107.44;4995211;28;20045;-67
2022/03/25 01:34:27;;;;;;;21.75;10.48;;;;;;;2.78;60.61;91119.25;4995179;28;20477;-69
2022/03/25 01:36:53;;;;;;;21.40;10.52;;;;;;;2.88;58.65;91108.00;4995015;28;20046;-67
2022/03/25 01:39:18;;;;;;;18.02;9.65;;;;;;;2.97;58.53;91115.13;4995116;28;20433;-67
2022/03/25 01:41:47;;;;;;;19.35;9.07;;;;;;;3.08;58.12;91105.44;4995010;28;20426;-66
2022/03/25 01:44:14;;;;;;;18.17;9.00;;;;;;;3.25;57.04;91110.47;4995031;28;20449;-66
2022/03/25 01:46:39;;;;;;;26.80;9.80;;;;;;;3.52;57.13;91112.91;4994968;28;20206;-66
2022/03/25 01:49:05;;;;;;;20.80;9.50;;;;;;;3.47;56.68;91115.50;4994938;28;20038;-66
2022/03/25 01:51:36;;;;;;;15.02;8.23;;;;;;;3.48;56.52;91117.13;4994783;28;20038;-66
2022/03/25 01:54:20;;;;;;;13.50;7.22;;;;;;;3.54;56.23;91116.84;4994834;28;20080;-67
2022/03/25 01:56:51;;;;;;;;;;;;;;;3.64;55.33;91112.66;4995115;28;20030;-68
2022/03/25 01:59:16;;;;;;;11.35;7.22;;;;;;;3.70;54.43;91116.88;4994777;28;19921;-66
2022/03/25 02:01:42;;;;;;;14.57;7.13;;;;;;;3.79;54.27;91110.84;4994725;28;20022;-66
2022/03/25 02:04:08;;;;;;;12.50;7.40;;;;;;;3.95;53.59;91114.25;4994637;28;20038;-66
2022/03/25 02:06:33;;;;;;;13.98;8.07;;;;;;;3.99;53.16;91111.88;4994526;28;20076;-67
2022/03/25 02:08:59;;;;;;;16.25;7.22;;;;;;;3.98;52.71;91110.31;4994606;28;20134;-67
2022/03/25 02:11:26;;;;;;;14.52;7.10;;;;;;;4.04;52.27;91111.88;4994312;28;20046;-67
2022/03/25 02:13:51;;;;;;;11.25;7.38;;;;;;;4.24;51.99;91114.47;4994420;28;20512;-67
2022/03/25 02:16:18;;;;;;;13.55;7.90;;;;;;;4.24;52.11;91118.94;4994195;28;20027;-67
2022/03/25 02:18:43;;;;;;;14.25;7.30;;;;;;;4.20;51.88;91118.69;4994054;28;20488;-68
2022/03/25 02:21:09;;;;;;;15.68;7.13;;;;;;;4.12;51.96;91112.13;4994131;28;20117;-68
2022/03/25 02:23:34;;;;;;;15.30;7.90;;;;;;;4.21;51.91;91121.06;4993896;28;20411;-67
2022/03/25 02:26:00;;;;;;;15.75;7.38;;;;;;;4.27;51.69;91121.88;4993732;28;20066;-67
2022/03/25 02:28:26;;;;;;;13.20;7.78;;;;;;;4.34;51.63;91125.00;4993703;28;20026;-68
2022/03/25 02:30:52;;;;;;;11.43;7.45;;;;;;;4.30;51.74;91123.97;4993894;28;20050;-68
2022/03/25 02:33:17;;;;;;;13.20;8.07;;;;;;;4.26;52.01;91124.75;4993878;28;20381;-68
2022/03/25 02:35:46;;;;;;;12.05;8.10;;;;;;;4.21;51.96;91120.28;4993648;28;20114;-68
2022/03/25 02:38:15;;;;;;;19.10;8.57;;;;;;;4.20;51.79;91129.22;4993933;28;20049;-68
2022/03/25 02:40:41;;;;;;;18.48;9.43;;;;;;;4.16;51.97;91128.19;4994005;28;20046;-68
2022/03/25 02:43:08;;;;;;;13.80;8.20;;;;;;;4.02;52.39;91119.25;4993957;28;20057;-67
2022/03/25 02:45:33;;;;;;;14.45;9.32;;;;;;;3.93;53.05;91129.50;4993803;28;20027;-67
2022/03/25 02:48:02;;;;;;;21.00;10.25;;;;;;;3.84;53.08;91134.50;4993856;28;20120;-67
2022/03/25 02:50:29;;;;;;;16.15;8.68;;;;;;;3.72;53.46;91139.22;4993788;28;20041;-67
2022/03/25 02:52:55;;;;;;;15.10;8.45;;;;;;;3.59;53.40;91137.88;4993768;28;20058;-67
2022/03/25 02:55:21;;;;;;;21.25;10.20;;;;;;;3.53;53.49;91130.25;4993553;28;20030;-67
2022/03/25 02:57:46;;;;;;;34.05;16.52;;;;;;;3.57;53.59;91144.47;4993605;28;20077;-67
2022/03/25 03:00:12;;;;;;;20.70;11.23;;;;;;;3.40;55.10;91147.31;4993646;28;20414;-67
2022/03/25 03:02:38;;;;;;;18.58;8.75;;;;;;;3.12;56.85;91151.19;4993255;28;20085;-67
2022/03/25 03:05:07;;;;;;;15.52;8.10;;;;;;;3.04;57.37;91149.06;5140998;22;20046;-66
2022/03/25 03:07:34;;;;;;;17.08;7.25;;;;;;;2.98;57.59;91140.34;4993564;28;20483;-66
2022/03/25 03:09:59;;;;;;;13.25;7.38;;;;;;;2.92;57.66;91125.63;4993529;28;20026;-66
2022/03/25 03:12:25;;;;;;;13.57;8.30;;;;;;;2.90;57.66;91132.19;4993385;28;20061;-67
2022/03/25 03:14:51;;;;;;;15.75;7.78;;;;;;;2.96;57.10;91131.16;4993295;28;20022;-67
2022/03/25 03:17:16;;;;;;;14.65;7.38;;;;;;;2.98;56.38;91123.81;4993323;28;20031;-66
2022/03/25 03:19:42;;;;;;;15.05;9.15;;;;;;;3.17;56.16;91135.44;4991995;28;20619;-67
2022/03/25 03:22:07;;;;;;;19.83;10.32;;;;;;;3.23;56.02;91136.25;4993237;28;20034;-67
2022/03/25 03:24:32;;;;;;;13.77;9.32;;;;;;;3.29;55.72;91132.56;4993069;28;20030;-66
2022/03/25 03:26:58;;;;;;;21.00;10.65;;;;;;;3.33;55.52;91127.59;4993155;28;20468;-67
2022/03/25 03:29:24;;;;;;;19.13;11.82;;;;;;;3.28;55.81;91131.78;4992763;28;20022;-67
2022/03/25 03:31:50;;;;;;;19.17;9.07;;;;;;;3.27;55.66;91132.03;4993089;28;20099;-66
2022/03/25 03:34:15;;;;;;;18.58;10.20;;;;;;;3.36;54.97;91124.44;4992942;28;20106;-67
2022/03/25 03:36:41;;;;;;;18.75;10.13;;;;;;;3.44;54.84;91126.56;4992885;28;20033;-67
2022/03/25 03:39:07;;;;;;;22.95;12.52;;;;;;;3.39;55.26;91123.94;4993004;28;20416;-67
2022/03/25 03:41:32;;;;;;;21.83;12.27;;;;;;;3.37;55.10;91126.03;4992876;28;20033;-67
2022/03/25 03:43:57;;;;;;;26.85;10.65;;;;;;;3.38;54.86;91122.34;4992850;28;20030;-67
2022/03/25 03:46:23;;;;;;;22.63;11.95;;;;;;;3.43;55.06;91127.59;4992682;28;20026;-67
2022/03/25 03:48:49;;;;;;;22.67;10.68;;;;;;;3.39;55.20;91123.94;4992733;28;20022;-67
2022/03/25 03:51:15;;;;;;;23.30;11.27;;;;;;;3.36;55.21;91130.50;4992734;28;20041;-66
2022/03/25 03:53:40;;;;;;;15.75;9.80;;;;;;;3.32;55.36;91123.41;4992700;28;20026;-67
2022/03/25 03:56:06;;;;;;;17.88;8.70;;;;;;;3.26;55.51;91118.09;4992492;28;20476;-66
2022/03/25 03:58:31;;;;;;;16.42;9.30;;;;;;;3.16;55.88;91125.97;4992660;28;20057;-66
2022/03/25 04:00:57;;;;;;;20.48;11.15;;;;;;;3.14;56.00;91119.38;4992534;28;20033;-66
2022/03/25 04:03:22;;;;;;;39.60;19.52;;;;;;;2.99;56.29;91109.59;4992475;28;20114;-66
2022/03/25 04:05:47;;;;;;;24.33;13.10;;;;;;;2.97;56.53;91116.97;4992221;28;20038;-66
2022/03/25 04:08:13;;;;;;;25.13;10.98;;;;;;;2.86;57.11;91121.41;4992398;28;20034;-66
2022/03/25 04:10:38;;;;;;;26.52;14.50;;;;;;;2.85;57.11;91119.03;4992309;28;20031;-66
2022/03/25 04:13:04;;;;;;;42.28;21.60;;;;;;;2.86;57.28;91123.25;4992544;28;20467;-66
2022/03/25 04:15:30;;;;;;;38.03;19.83;;;;;;;2.84;57.20;91118.25;4992109;28;20030;-66
2022/03/25 04:17:56;;;;;;;43.35;20.88;;;;;;;2.88;57.32;91121.16;4992287;28;20463;-67
2022/03/25 04:20:22;;;;;;;78.13;33.33;;;;;;;2.86;57.25;91123.25;4990897;28;20053;-66
2022/03/25 04:22:47;;;;;;;34.40;16.40;;;;;;;2.85;57.14;91126.94;4992152;28;20476;-66
2022/03/25 04:25:13;;;;;;;27.15;14.82;;;;;;;2.84;57.18;91125.31;4990515;28;20405;-68
2022/03/25 04:27:46;;;;;;;31.55;14.52;;;;;;;2.88;57.04;91129.81;4991311;28;20034;-67
2022/03/25 04:30:13;;;;;;;18.63;11.35;;;;;;;2.90;57.26;91132.19;4991922;28;20023;-66
2022/03/25 04:32:38;;;;;;;21.90;10.52;;;;;;;2.91;57.04;91131.16;4992230;28;20030;-66
2022/03/25 04:35:04;;;;;;;17.65;8.38;;;;;;;2.94;56.71;91133.25;4991772;28;20567;-67
2022/03/25 04:37:29;;;;;;;18.85;10.27;;;;;;;2.99;56.87;91134.03;4992023;28;20080;-67
2022/03/25 04:39:55;;;;;;;19.65;9.05;;;;;;;3.07;56.58;91143.28;4991925;28;20496;-67
2022/03/25 04:42:20;;;;;;;16.15;8.07;;;;;;;3.10;56.18;91131.47;4991506;28;20488;-67
2022/03/25 04:44:46;;;;;;;18.20;9.40;;;;;;;3.24;56.25;91143.88;4991697;28;20030;-67
2022/03/25 04:47:11;;;;;;;19.35;9.07;;;;;;;3.29;55.61;91143.09;4991791;28;20084;-67
2022/03/25 04:49:37;;;;;;;23.23;12.57;;;;;;;3.33;55.46;91135.50;4991745;28;20028;-67
2022/03/25 04:52:03;;;;;;;28.05;13.73;;;;;;;3.47;55.67;91139.19;4991778;28;20041;-67
2022/03/25 04:54:28;;;;;;;22.60;9.90;;;;;;;3.53;55.00;91138.94;4991664;28;20026;-67
2022/03/25 04:56:54;;;;;;;18.58;11.68;;;;;;;3.64;54.49;91138.97;4991709;28;20080;-67
2022/03/25 04:59:19;;;;;;;25.00;12.07;;;;;;;3.75;54.42;91141.31;4990479;28;20027;-67
2022/03/25 05:01:45;;;;;;;24.67;13.05;;;;;;;3.95;53.91;91132.69;4991722;28;20416;-67
2022/03/25 05:04:10;;;;;;;20.77;10.45;;;;;;;4.05;53.70;91137.13;4991648;28;20033;-67
2022/03/25 05:06:35;;;;;;;42.28;21.58;;;;;;;4.16;53.02;91143.97;4991925;28;20042;-67
2022/03/25 05:09:01;;;;;;;19.38;12.95;;;;;;;4.31;52.95;91137.91;4991888;28;20049;-67
2022/03/25 05:11:26;;;;;;;38.17;18.92;;;;;;;4.47;52.69;91136.84;4991847;28;20119;-67
2022/03/25 05:13:52;;;;;;;19.25;10.85;;;;;;;4.73;51.82;91135.75;4991694;28;20041;-67
2022/03/25 05:16:17;;;;;;;24.67;13.75;;;;;;;6.34;49.39;91128.28;4991533;28;20035;-67
2022/03/25 05:18:43;;;;;;;23.08;12.93;;;;;;;8.06;45.36;91134.19;4991584;28;20122;-67
2022/03/25 05:21:08;;;;;;;26.40;14.27;;;;;;;9.26;42.83;91118.34;4991546;28;20061;-67
2022/03/25 05:23:35;;;;;;;22.77;10.00;;;;;;;10.43;40.55;91113.22;4991582;28;20034;-67
2022/03/25 05:26:01;;;;;;;226.07;111.07;;;;;;;11.14;39.39;91125.81;4991394;28;20041;-67
2022/03/25 05:28:26;;;;;;;22.13;12.73;;;;;;;11.19;38.97;91123.00;4991425;28;20030;-67
2022/03/25 05:30:51;;;;;;;15.95;8.85;;;;;;;12.26;36.92;91124.22;4991423;28;20092;-67
2022/03/25 05:33:17;;;;;;;16.33;9.70;;;;;;;12.34;36.69;91117.34;4991439;28;20611;-67
2022/03/25 05:35:42;;;;;;;14.95;8.65;;;;;;;13.22;35.52;91124.13;4991224;28;20472;-67
2022/03/25 05:38:08;;;;;;;14.75;7.93;;;;;;;13.35;34.81;91123.16;4991280;28;20117;-67
2022/03/25 05:40:33;;;;;;;24.10;8.45;;;;;;;13.46;35.08;91135.84;4991281;28;20034;-67
2022/03/25 05:42:59;;;;;;;16.58;8.70;;;;;;;13.43;35.15;91120.47;4991276;28;20114;-67
2022/03/25 05:45:24;;;;;;;20.70;8.60;;;;;;;14.16;34.32;91130.13;4991385;28;20491;-67
2022/03/25 05:47:50;;;;;;;18.48;8.30;;;;;;;13.63;34.93;91118.16;4991252;28;20389;-67
2022/03/25 05:50:16;;;;;;;25.17;9.07;;;;;;;15.10;33.58;91115.22;4991217;28;20041;-67
2022/03/25 05:52:42;;;;;;;24.23;9.50;;;;;;;16.02;32.12;91127.41;4991795;28;20026;-67
2022/03/25 05:55:09;;;;;;;15.95;8.35;;;;;;;15.14;33.50;91123.34;4994277;28;20112;-67
2022/03/25 05:57:35;;;;;;;18.27;9.13;;;;;;;15.82;32.49;91119.16;4994442;28;20042;-67
2022/03/25 06:00:01;;;;;;;24.80;9.57;;;;;;;15.87;32.51;91121.59;4994712;28;20129;-67
2022/03/25 06:02:27;;;;;;;18.60;10.48;;;;;;;15.93;32.44;91116.78;4994694;28;20420;-67
2022/03/25 06:04:53;;;;;;;22.52;11.18;;;;;;;16.45;32.46;91129.50;4994467;28;20035;-67
2022/03/25 06:07:19;;;;;;;40.05;16.10;;;;;;;17.68;30.92;91122.53;4994635;28;20030;-67
2022/03/25 06:09:44;;;;;;;12.52;9.68;;;;;;;18.42;29.28;91120.78;4994635;28;20582;-67
2022/03/25 06:12:11;;;;;;;17.85;9.20;;;;;;;17.61;28.89;91120.41;4994554;28;20065;-67
2022/03/25 06:14:37;;;;;;;21.52;9.77;;;;;;;17.21;29.34;91106.31;4994179;28;20435;-68
2022/03/25 06:17:03;;;;;;;19.77;10.07;;;;;;;18.09;27.87;91112.34;4994308;28;20035;-67
2022/03/25 06:19:29;;;;;;;29.45;10.68;;;;;;;18.47;27.90;91125.16;4994351;28;20040;-67
2022/03/25 06:21:56;;;;;;;30.45;10.85;;;;;;;17.72;27.47;91130.69;4994318;28;20542;-67
2022/03/25 06:24:21;;;;;;;29.15;11.45;;;;;;;18.09;26.75;91129.28;4994127;28;20407;-67
2022/03/25 06:26:47;;;;;;;21.08;10.85;;;;;;;16.61;28.44;91133.03;4994183;28;20114;-67
2022/03/25 06:29:12;;;;;;;24.00;9.88;;;;;;;18.78;27.31;91138.56;4994150;28;20026;-67
2022/03/25 06:31:38;;;;;;;15.82;10.27;;;;;;;19.10;26.78;91138.44;4994161;28;20117;-67
2022/03/25 06:34:03;;;;;;;17.88;9.38;;;;;;;17.93;28.13;91152.72;4994057;28;20026;-67
2022/03/25 06:36:29;;;;;;;16.60;10.32;;;;;;;18.12;27.98;91133.94;4993933;28;20113;-67
2022/03/25 06:38:55;;;;;;;18.02;9.75;;;;;;;19.02;27.95;91137.50;4994051;28;20061;-67
2022/03/25 06:41:20;;;;;;;15.95;9.00;;;;;;;18.51;28.21;91147.56;4992672;28;20092;-67
2022/03/25 06:43:45;;;;;;;14.27;9.25;;;;;;;18.86;29.05;91142.16;4993904;28;20465;-67
2022/03/25 06:46:11;;;;;;;52.17;11.57;;;;;;;19.70;27.03;91138.78;4993677;28;20028;-68
2022/03/25 06:48:37;;;;;;;18.63;10.63;;;;;;;19.17;27.23;91135.88;4993814;28;20066;-67
2022/03/25 06:51:04;;;;;;;23.58;11.70;;;;;;;20.52;26.37;91146.34;4993901;28;20061;-67
2022/03/25 06:53:30;;;;;;;35.85;12.98;;;;;;;20.35;27.04;91141.41;4993775;28;20122;-67
2022/03/25 06:55:56;;;;;;;19.60;11.18;;;;;;;19.19;27.08;91141.69;4992447;28;20484;-68
2022/03/25 06:58:22;;;;;;;24.90;11.05;;;;;;;19.24;27.08;91157.56;4993618;28;20118;-67
2022/03/25 07:00:48;;;;;;;20.85;10.10;;;;;;;19.21;27.84;91147.50;4993688;28;20506;-67
2022/03/25 07:03:14;;;;;;;43.25;12.82;;;;;;;18.28;28.13;91152.78;4993496;28;20416;-67
2022/03/25 07:05:40;;;;;;;21.65;11.18;;;;;;;18.78;27.88;91154.72;4992183;28;20077;-66
2022/03/25 07:08:06;;;;;;;20.50;11.27;;;;;;;18.74;27.05;91156.53;4993525;28;20057;-67
2022/03/25 07:10:33;;;;;;;58.83;13.15;;;;;;;18.90;27.61;91161.09;4993634;28;20030;-67
2022/03/25 07:12:59;;;;;;;28.23;12.38;;;;;;;18.69;26.82;91164.91;4993381;28;20504;-67
2022/03/25 07:15:24;;;;;;;39.53;12.70;;;;;;;19.14;26.32;91160.84;4993281;28;20053;-67
2022/03/25 07:17:52;;;;;;;18.48;11.65;;;;;;;19.65;26.41;91168.78;4993254;28;20066;-67
2022/03/25 07:20:19;;;;;;;168.18;22.80;;;;;;;19.72;26.45;91160.81;4993156;28;20124;-67
2022/03/25 07:22:47;;;;;;;41.05;12.65;;;;;;;18.69;27.00;91170.31;4993267;28;20026;-67
2022/03/25 07:25:14;;;;;;;19.63;13.55;;;;;;;19.51;26.17;91155.78;4993105;28;20038;-67
2022/03/25 07:27:41;;;;;;;48.33;13.85;;;;;;;19.13;26.08;91164.69;4993097;28;20054;-67
2022/03/25 07:30:09;;;;;;;30.77;13.43;;;;;;;18.65;26.79;91161.38;4993009;28;20057;-67
2022/03/25 07:32:35;;;;;;;31.38;13.07;;;;;;;19.55;26.62;91158.56;4993024;28;20116;-66
2022/03/25 07:35:00;;;;;;;33.45;15.02;;;;;;;19.38;26.69;91165.16;4992815;28;20109;-67
2022/03/25 07:37:26;;;;;;;36.45;14.65;;;;;;;18.08;27.63;91164.63;4992790;28;20049;-67
2022/03/25 07:39:52;;;;;;;50.60;14.38;;;;;;;18.91;26.73;91165.38;4992998;28;20034;-67
2022/03/25 07:42:17;;;;;;;21.40;12.93;;;;;;;19.54;26.53;91163.19;4992920;28;20026;-67
2022/03/25 07:44:42;;;;;;;25.05;14.05;;;;;;;19.44;26.93;91153.75;4992917;28;20419;-67
2022/03/25 07:47:11;;;;;;;27.20;15.30;;;;;;;20.05;26.76;91165.66;4992983;28;20473;-67
2022/03/25 07:49:39;;;;;;;54.33;16.15;;;;;;;20.04;26.75;91164.88;4992733;28;20113;-67
2022/03/25 07:52:07;;;;;;;46.92;18.75;;;;;;;19.53;26.57;91166.22;4992811;28;20030;-67
2022/03/25 07:54:33;;;;;;;36.30;14.43;;;;;;;18.66;27.01;91170.22;4992640;28;20080;-67
2022/03/25 07:56:58;;;;;;;39.65;15.70;;;;;;;18.10;28.02;91168.53;4991270;28;20030;-67
2022/03/25 07:59:28;;;;;;;28.27;14.48;;;;;;;18.98;26.54;91168.22;4992662;28;20030;-67
2022/03/25 08:01:54;;;;;;;16.77;12.52;;;;;;;19.81;27.26;91160.59;4992532;28;20037;-67
2022/03/25 08:04:24;;;;;;;33.92;13.45;;;;;;;19.98;26.72;91165.50;4992226;28;20500;-67
2022/03/25 08:06:54;;;;;;;59.47;16.85;;;;;;;19.17;26.91;91165.53;4992457;28;20085;-67
2022/03/25 08:09:20;;;;;;;27.83;14.15;;;;;;;19.93;26.50;91157.72;4992433;28;20061;-67
2022/03/25 08:11:46;;;;;;;71.32;15.98;;;;;;;19.31;26.49;91168.50;4992414;28;20069;-66
2022/03/25 08:14:13;;;;;;;90.28;19.60;;;;;;;19.81;26.46;91160.59;4992263;28;20504;-66
2022/03/25 08:16:38;;;;;;;47.22;14.63;;;;;;;20.45;26.66;91172.47;4992004;28;20038;-66
2022/03/25 08:19:05;;;;;;;26.45;14.90;;;;;;;19.49;27.18;91157.28;4992363;28;20046;-66
2022/03/25 08:21:30;;;;;;;97.20;18.30;;;;;;;19.69;27.24;91167.72;4992211;28;20053;-66
2022/03/25 08:29:24;;;;;;;43.92;14.95;;;;;;;20.78;25.56;91169.09;4992432;28;20061;-66
2022/03/25 08:31:49;;;;;;;35.25;15.38;;;;;;;22.18;24.94;91156.88;4990678;28;20527;-66
2022/03/25 08:34:15;;;;;;;51.88;16.25;;;;;;;20.17;26.02;91161.97;4991803;28;20064;-66
2022/03/25 08:36:41;;;;;;;64.45;17.27;;;;;;;19.30;26.76;91166.94;4991788;28;20045;-66
2022/03/25 08:39:07;;;;;;;138.00;22.50;;;;;;;19.03;27.02;91166.00;4991908;28;20073;-66
2022/03/25 08:41:32;;;;;;;144.98;19.90;;;;;;;18.15;27.98;91168.28;4991872;28;20085;-66
2022/03/25 08:43:58;;;;;;;53.15;15.40;;;;;;;17.94;27.82;91159.66;4991809;28;20038;-66
2022/03/25 08:46:24;;;;;;;73.32;16.55;;;;;;;18.33;28.01;91146.38;4991788;28;20035;-66
2022/03/25 08:48:49;;;;;;;22.23;12.90;;;;;;;18.50;28.18;91162.16;4991797;28;20113;-66
2022/03/25 08:51:15;;;;;;;37.47;15.98;;;;;;;17.76;29.07;91174.59;4991822;28;20419;-66
2022/03/25 08:53:41;;;;;;;46.65;15.23;;;;;;;19.22;27.91;91167.16;4991768;28;20040;-66
2022/03/25 08:56:07;;;;;;;45.40;15.43;;;;;;;19.58;27.32;91177.53;4991747;28;20550;-66
2022/03/25 08:58:33;;;;;;;56.88;22.08;;;;;;;19.56;27.34;91166.31;4991735;28;20528;-66
2022/03/25 09:00:59;;;;;;;46.80;15.38;;;;;;;20.02;26.89;91172.53;4991752;28;20193;-66
2022/03/25 09:03:24;;;;;;;34.67;14.73;;;;;;;20.18;26.59;91167.00;4991664;28;20435;-66
2022/03/25 09:05:50;;;;;;;26.90;13.63;;;;;;;20.42;26.98;91179.41;4991434;28;20435;-66
2022/03/25 09:08:16;;;;;;;27.17;15.00;;;;;;;20.15;26.68;91169.66;4991630;28;20516;-66
2022/03/25 09:10:41;;;;;;;28.10;13.90;;;;;;;20.96;25.84;91174.75;4991664;28;20397;-66
2022/03/25 09:13:07;;;;;;;41.55;16.25;;;;;;;20.90;26.10;91180.50;4991490;28;20042;-66
2022/03/25 09:15:32;;;;;;;27.30;15.30;;;;;;;21.98;25.50;91174.47;4991378;28;20421;-66
2022/03/25 09:17:58;;;;;;;33.20;14.80;;;;;;;21.83;25.91;91163.47;4991460;28;20049;-66
2022/03/25 09:20:23;;;;;;;60.15;15.35;;;;;;;21.76;25.16;91157.97;4991396;28;20110;-66
2022/03/25 09:22:51;;;;;;;39.88;15.35;;;;;;;21.99;25.12;91165.19;4991472;28;20120;-66
2022/03/25 09:25:16;;;;;;;39.85;22.90;;;;;;;21.55;25.92;91168.56;4991592;28;20050;-66
2022/03/25 09:27:42;;;;;;;37.72;15.40;;;;;;;21.75;24.89;91158.34;4991899;28;20551;-66
2022/03/25 09:30:10;;;;;;;37.78;14.32;;;;;;;20.29;26.49;91159.09;4995485;28;20420;-66
2022/03/25 09:32:35;;;;;;;47.58;14.35;;;;;;;21.13;25.69;91158.75;4995290;28;20039;-66
2022/03/25 09:35:10;;;;;;;87.00;16.92;;;;;;;20.84;25.80;91162.25;4995203;28;20089;-66
2022/03/25 09:37:37;;;;;;;24.27;13.60;;;;;;;19.44;26.65;91148.34;4995213;28;20046;-66
2022/03/25 09:40:05;;;;;;;42.30;13.70;;;;;;;20.91;25.55;91154.22;4995229;28;20086;-66
2022/03/25 09:42:32;;;;;;;23.75;11.13;;;;;;;19.57;26.19;91150.91;4995008;28;20035;-65
2022/03/25 09:45:00;;;;;;;25.05;10.98;;;;;;;19.12;26.10;91147.72;4994956;28;20038;-67
2022/03/25 09:47:26;;;;;;;38.40;10.82;;;;;;;19.18;25.68;91140.13;4995099;28;20057;-64
2022/03/25 09:49:52;;;;;;;42.30;12.35;;;;;;;19.04;25.86;91131.75;4994876;28;20038;-66
2022/03/25 09:52:21;;;;;;;36.50;10.15;;;;;;;19.71;25.92;91140.34;4994798;28;20038;-66
2022/03/25 09:54:46;;;;;;;38.63;11.50;;;;;;;20.36;24.96;91145.69;4994897;28;20468;-65
2022/03/25 09:57:11;;;;;;;45.67;12.68;;;;;;;20.51;25.02;91152.91;4994926;28;20081;-66
2022/03/25 09:59:37;;;;;;;76.72;12.98;;;;;;;21.34;24.62;91133.16;4994831;28;20047;-66
2022/03/25 10:02:03;;;;;;;34.22;10.52;;;;;;;21.90;23.57;91134.91;4994844;28;20034;-66
2022/03/25 10:04:42;;;;;;;47.58;11.55;;;;;;;21.08;24.47;91129.34;4994473;28;20412;-66
2022/03/25 10:07:27;;;;;;;58.40;12.25;;;;;;;20.55;24.12;91142.16;4994764;28;20065;-66
2022/03/25 10:10:13;;;;;;;23.83;9.65;;;;;;;20.73;24.08;91134.28;4994762;28;20038;-66
2022/03/25 10:12:42;;;;;;;20.48;9.35;;;;;;;18.95;25.30;91137.38;4994605;28;20045;-65
2022/03/25 10:15:18;;;;;;;48.58;11.15;;;;;;;19.52;23.98;91134.97;4994388;28;20536;-65
2022/03/25 10:17:58;;;;;;;21.35;10.32;;;;;;;20.37;24.44;91112.13;4994598;28;20039;-66
2022/03/25 10:20:43;;;;;;;84.53;16.25;;;;;;;20.20;24.18;91128.84;4993201;28;20050;-66
2022/03/25 10:23:17;;;;;;;22.50;9.82;;;;;;;20.41;25.91;91123.78;4994497;28;20117;-66
2022/03/25 10:25:50;;;;;;;21.05;8.90;;;;;;;21.26;24.19;91126.09;4994358;28;20038;-66
2022/03/25 10:28:22;;;;;;;;;;;;;;;20.91;23.40;91124.47;4994865;28;20404;-66
2022/03/25 10:30:51;;;;;;;41.22;12.27;;;;;;;20.41;23.30;91120.28;4994346;28;19921;-66
2022/03/25 10:33:32;;;;;;;363.33;31.67;;;;;;;21.49;22.97;91121.34;4994618;28;20035;-66
2022/03/25 10:36:00;;;;;;;17.10;7.25;;;;;;;22.34;21.86;91103.19;4994404;28;20046;-66
2022/03/25 10:38:41;;;;;;;52.05;13.20;;;;;;;22.48;21.64;91109.84;4993990;28;20038;-66
2022/03/25 10:41:06;;;;;;;19.77;8.20;;;;;;;22.26;22.27;91101.59;4994178;28;20463;-66
2022/03/25 10:43:32;;;;;;;41.13;13.32;;;;;;;22.75;22.32;91107.72;4994124;28;20069;-66
2022/03/25 10:45:57;;;;;;;30.55;10.98;;;;;;;21.93;21.93;91105.13;4994143;28;20065;-66
2022/03/25 10:48:24;;;;;;;35.33;15.25;;;;;;;20.88;23.18;91087.34;4994010;28;20042;-66
2022/03/25 10:51:08;;;;;;;31.50;9.23;;;;;;;22.92;22.25;91102.41;4994004;28;20045;-66
2022/03/25 10:53:47;;;;;;;40.63;11.82;;;;;;;22.65;22.74;91101.84;4993942;28;20046;-66
2022/03/25 10:56:13;;;;;;;41.88;9.15;;;;;;;22.89;21.90;91097.75;4993990;28;20038;-66
2022/03/25 10:58:39;;;;;;;34.47;11.20;;;;;;;22.95;22.31;91101.66;4993813;28;20457;-66
2022/03/25 11:01:06;;;;;;;63.97;11.77;;;;;;;21.10;23.60;91094.56;4993759;28;20038;-66
2022/03/25 11:03:32;;;;;;;35.55;13.77;;;;;;;20.84;23.99;91103.53;4993664;28;20043;-66
2022/03/25 11:05:58;;;;;;;18.05;8.50;;;;;;;21.91;23.97;91104.72;4993487;28;20533;-66
2022/03/25 11:08:23;;;;;;;26.67;8.95;;;;;;;22.39;22.96;91097.41;4993611;28;20522;-66
2022/03/25 11:10:51;;;;;;;30.05;9.00;;;;;;;21.95;23.43;91093.94;4993646;28;20046;-66
2022/03/25 11:13:17;;;;;;;20.27;8.20;;;;;;;22.23;23.23;91077.91;4993660;28;20121;-66
2022/03/25 11:15:44;;;;;;;20.75;8.63;;;;;;;22.11;22.96;91087.13;4993305;28;20038;-66
2022/03/25 11:18:11;;;;;;;86.40;14.38;;;;;;;19.62;23.61;91083.16;4993406;28;20042;-66
2022/03/25 11:20:37;;;;;;;37.92;12.43;;;;;;;20.72;23.91;91078.66;4993369;28;20043;-66
2022/03/25 11:23:15;;;;;;;24.75;9.25;;;;;;;20.02;23.96;91091.50;4993340;28;20117;-66
2022/03/25 11:25:46;;;;;;;27.63;12.60;;;;;;;19.06;24.78;91070.16;4993189;28;20034;-65
2022/03/25 11:28:26;;;;;;;44.70;17.77;;;;;;;18.91;23.44;91081.78;4993005;28;20054;-65